sensor_id;sensor_type;location;lat;lon;timestamp;temperature;humidity
6518;DHT22;3292;48.944;9.240;2024-01-30T00:00:24;2.50;99.90
6518;DHT22;3292;48.944;9.240;2024-01-30T00:02:51;2.50;99.90
6518;DHT22;3292;48.944;9.240;2024-01-30T00:05:18;2.50;99.90
6518;DHT22;3292;48.944;9.240;2024-01-30T00:07:46;2.50;99.90
6518;DHT22;3292;48.944;9.240;2024-01-30T00:10:13;2.50;99.90
6518;DHT22;3292;48.944;9.240;2024-01-30T00:12:40;2.50;99.90
6518;DHT22;3292;48.944;9.240;2024-01-30T00:15:07;2.50;99.90
6518;DHT22;3292;48.944;9.240;2024-01-30T00:17:35;2.50;99.90
6518;DHT22;3292;48.944;9.240;2024-01-30T00:20:02;2.60;99.90
6518;DHT22;3292;48.944;9.240;2024-01-30T00:22:31;2.60;99.90
6518;DHT22;3292;48.944;9.240;2024-01-30T00:24:59;2.50;99.90
6518;DHT22;3292;48.944;9.240;2024-01-30T00:27:26;2.50;99.90
6518;DHT22;3292;48.944;9.240;2024-01-30T00:29:53;2.50;99.90
6518;DHT22;3292;48.944;9.240;2024-01-30T00:32:19;2.50;99.90
6518;DHT22;3292;48.944;9.240;2024-01-30T00:34:48;2.40;99.90
6518;DHT22;3292;48.944;9.240;2024-01-30T00:37:15;2.30;99.90
6518;DHT22;3292;48.944;9.240;2024-01-30T00:39:42;2.30;99.90
6518;DHT22;3292;48.944;9.240;2024-01-30T00:42:10;2.20;99.90
6518;DHT22;3292;48.944;9.240;2024-01-30T00:44:37;2.20;99.90
6518;DHT22;3292;48.944;9.240;2024-01-30T00:47:05;2.20;99.90
6518;DHT22;3292;48.944;9.240;2024-01-30T00:49:31;2.20;99.90
6518;DHT22;3292;48.944;9.240;2024-01-30T00:51:58;2.20;99.90
6518;DHT22;3292;48.944;9.240;2024-01-30T00:54:25;2.10;99.90
6518;DHT22;3292;48.944;9.240;2024-01-30T00:56:52;2.10;99.90
6518;DHT22;3292;48.944;9.240;2024-01-30T00:59:20;2.10;99.90
6518;DHT22;3292;48.944;9.240;2024-01-30T01:01:47;2.10;99.90
6518;DHT22;3292;48.944;9.240;2024-01-30T01:04:13;2.10;99.90
6518;DHT22;3292;48.944;9.240;2024-01-30T01:06:40;2.10;99.90
6518;DHT22;3292;48.944;9.240;2024-01-30T01:09:10;2.10;99.90
6518;DHT22;3292;48.944;9.240;2024-01-30T01:11:37;2.00;99.90
6518;DHT22;3292;48.944;9.240;2024-01-30T01:14:04;2.00;99.90
6518;DHT22;3292;48.944;9.240;2024-01-30T01:16:33;2.10;99.90
6518;DHT22;3292;48.944;9.240;2024-01-30T01:19:00;2.10;99.90
6518;DHT22;3292;48.944;9.240;2024-01-30T01:21:26;2.10;99.90
6518;DHT22;3292;48.944;9.240;2024-01-30T01:23:53;2.20;99.90
6518;DHT22;3292;48.944;9.240;2024-01-30T01:26:20;2.20;99.90
6518;DHT22;3292;48.944;9.240;2024-01-30T01:28:47;2.20;99.90
6518;DHT22;3292;48.944;9.240;2024-01-30T01:31:14;2.20;99.90
6518;DHT22;3292;48.944;9.240;2024-01-30T01:33:44;2.20;99.90
6518;DHT22;3292;48.944;9.240;2024-01-30T01:36:11;2.20;99.90
6518;DHT22;3292;48.944;9.240;2024-01-30T01:38:38;2.30;99.90
6518;DHT22;3292;48.944;9.240;2024-01-30T01:41:05;2.30;99.90
6518;DHT22;3292;48.944;9.240;2024-01-30T01:43:31;2.20;99.90
6518;DHT22;3292;48.944;9.240;2024-01-30T01:45:58;2.20;99.90
6518;DHT22;3292;48.944;9.240;2024-01-30T01:48:26;2.20;99.90
6518;DHT22;3292;48.944;9.240;2024-01-30T01:50:54;2.20;99.90
6518;DHT22;3292;48.944;9.240;2024-01-30T01:53:21;2.10;99.90
6518;DHT22;3292;48.944;9.240;2024-01-30T01:55:48;2.10;99.90
6518;DHT22;3292;48.944;9.240;2024-01-30T01:58:15;2.10;99.90
6518;DHT22;3292;48.944;9.240;2024-01-30T02:00:43;2.10;99.90
6518;DHT22;3292;48.944;9.240;2024-01-30T02:03:10;2.10;99.90
6518;DHT22;3292;48.944;9.240;2024-01-30T02:05:38;2.00;99.90
6518;DHT22;3292;48.944;9.240;2024-01-30T02:08:08;2.00;99.90
6518;DHT22;3292;48.944;9.240;2024-01-30T02:10:35;1.90;99.90
6518;DHT22;3292;48.944;9.240;2024-01-30T02:13:02;1.90;99.90
6518;DHT22;3292;48.944;9.240;2024-01-30T02:15:30;1.90;99.90
6518;DHT22;3292;48.944;9.240;2024-01-30T02:17:57;1.90;99.90
6518;DHT22;3292;48.944;9.240;2024-01-30T02:20:25;1.90;99.90
6518;DHT22;3292;48.944;9.240;2024-01-30T02:22:54;1.90;99.90
6518;DHT22;3292;48.944;9.240;2024-01-30T02:25:30;1.90;99.90
6518;DHT22;3292;48.944;9.240;2024-01-30T02:27:57;1.90;99.90
6518;DHT22;3292;48.944;9.240;2024-01-30T02:30:24;1.90;99.90
6518;DHT22;3292;48.944;9.240;2024-01-30T02:32:50;1.90;99.90
6518;DHT22;3292;48.944;9.240;2024-01-30T02:35:17;1.80;99.90
6518;DHT22;3292;48.944;9.240;2024-01-30T02:37:44;1.80;99.90
6518;DHT22;3292;48.944;9.240;2024-01-30T02:40:12;1.80;99.90
6518;DHT22;3292;48.944;9.240;2024-01-30T02:42:39;1.70;99.90
6518;DHT22;3292;48.944;9.240;2024-01-30T02:45:08;1.70;99.90
6518;DHT22;3292;48.944;9.240;2024-01-30T02:47:35;1.70;99.90
6518;DHT22;3292;48.944;9.240;2024-01-30T02:50:02;1.60;99.90
6518;DHT22;3292;48.944;9.240;2024-01-30T02:52:28;1.60;99.90
6518;DHT22;3292;48.944;9.240;2024-01-30T02:54:55;1.60;99.90
6518;DHT22;3292;48.944;9.240;2024-01-30T02:57:23;1.60;99.90
6518;DHT22;3292;48.944;9.240;2024-01-30T02:59:50;1.50;99.90
6518;DHT22;3292;48.944;9.240;2024-01-30T03:02:17;1.50;99.90
6518;DHT22;3292;48.944;9.240;2024-01-30T03:04:44;1.40;99.90
6518;DHT22;3292;48.944;9.240;2024-01-30T03:07:10;1.40;99.90
6518;DHT22;3292;48.944;9.240;2024-01-30T03:09:37;1.40;99.90
6518;DHT22;3292;48.944;9.240;2024-01-30T03:12:05;1.40;99.90
6518;DHT22;3292;48.944;9.240;2024-01-30T03:14:33;1.40;99.90
6518;DHT22;3292;48.944;9.240;2024-01-30T03:17:00;1.40;99.90
6518;DHT22;3292;48.944;9.240;2024-01-30T03:19:27;1.40;99.90
6518;DHT22;3292;48.944;9.240;2024-01-30T03:21:54;1.40;99.90
6518;DHT22;3292;48.944;9.240;2024-01-30T03:24:20;1.40;99.90
6518;DHT22;3292;48.944;9.240;2024-01-30T03:26:47;1.30;99.90
6518;DHT22;3292;48.944;9.240;2024-01-30T03:29:14;1.30;99.90
6518;DHT22;3292;48.944;9.240;2024-01-30T03:31:42;1.30;99.90
6518;DHT22;3292;48.944;9.240;2024-01-30T03:34:09;1.30;99.90
6518;DHT22;3292;48.944;9.240;2024-01-30T03:36:36;1.30;99.90
6518;DHT22;3292;48.944;9.240;2024-01-30T03:39:02;1.30;99.90
6518;DHT22;3292;48.944;9.240;2024-01-30T03:41:30;1.30;99.90
6518;DHT22;3292;48.944;9.240;2024-01-30T03:43:56;1.30;99.90
6518;DHT22;3292;48.944;9.240;2024-01-30T03:46:23;1.30;99.90
6518;DHT22;3292;48.944;9.240;2024-01-30T03:48:52;1.40;99.90
6518;DHT22;3292;48.944;9.240;2024-01-30T03:51:18;1.40;99.90
6518;DHT22;3292;48.944;9.240;2024-01-30T03:53:45;1.40;99.90
6518;DHT22;3292;48.944;9.240;2024-01-30T03:56:12;1.50;99.90
6518;DHT22;3292;48.944;9.240;2024-01-30T03:58:39;1.40;99.90
6518;DHT22;3292;48.944;9.240;2024-01-30T04:01:06;1.40;99.90
6518;DHT22;3292;48.944;9.240;2024-01-30T04:03:33;1.40;99.90
6518;DHT22;3292;48.944;9.240;2024-01-30T04:06:01;1.40;99.90
6518;DHT22;3292;48.944;9.240;2024-01-30T04:08:28;1.40;99.90
6518;DHT22;3292;48.944;9.240;2024-01-30T04:10:55;1.30;99.90
6518;DHT22;3292;48.944;9.240;2024-01-30T04:13:22;1.30;99.90
6518;DHT22;3292;48.944;9.240;2024-01-30T04:15:49;1.20;99.90
6518;DHT22;3292;48.944;9.240;2024-01-30T04:18:16;1.20;99.90
6518;DHT22;3292;48.944;9.240;2024-01-30T04:20:42;1.10;99.90
6518;DHT22;3292;48.944;9.240;2024-01-30T04:23:10;1.20;99.90
6518;DHT22;3292;48.944;9.240;2024-01-30T04:25:37;1.20;99.90
6518;DHT22;3292;48.944;9.240;2024-01-30T04:28:04;1.20;99.90
6518;DHT22;3292;48.944;9.240;2024-01-30T04:30:31;1.20;99.90
6518;DHT22;3292;48.944;9.240;2024-01-30T04:32:58;1.30;99.90
6518;DHT22;3292;48.944;9.240;2024-01-30T04:35:25;1.20;99.90
6518;DHT22;3292;48.944;9.240;2024-01-30T04:37:52;1.20;99.90
6518;DHT22;3292;48.944;9.240;2024-01-30T04:40:21;1.20;99.90
6518;DHT22;3292;48.944;9.240;2024-01-30T04:42:47;1.20;99.90
6518;DHT22;3292;48.944;9.240;2024-01-30T04:45:14;1.20;99.90
6518;DHT22;3292;48.944;9.240;2024-01-30T04:47:41;1.20;99.90
6518;DHT22;3292;48.944;9.240;2024-01-30T04:50:09;1.20;99.90
6518;DHT22;3292;48.944;9.240;2024-01-30T04:52:35;1.10;99.90
6518;DHT22;3292;48.944;9.240;2024-01-30T04:55:02;1.10;99.90
6518;DHT22;3292;48.944;9.240;2024-01-30T04:57:31;1.10;99.90
6518;DHT22;3292;48.944;9.240;2024-01-30T04:59:59;1.10;99.90
6518;DHT22;3292;48.944;9.240;2024-01-30T05:02:26;1.10;99.90
6518;DHT22;3292;48.944;9.240;2024-01-30T05:04:53;1.10;99.90
6518;DHT22;3292;48.944;9.240;2024-01-30T05:07:20;1.00;99.90
6518;DHT22;3292;48.944;9.240;2024-01-30T05:09:47;1.10;99.90
6518;DHT22;3292;48.944;9.240;2024-01-30T05:12:13;1.00;99.90
6518;DHT22;3292;48.944;9.240;2024-01-30T05:14:42;1.10;99.90
6518;DHT22;3292;48.944;9.240;2024-01-30T05:17:08;1.10;99.90
6518;DHT22;3292;48.944;9.240;2024-01-30T05:19:38;1.10;99.90
6518;DHT22;3292;48.944;9.240;2024-01-30T05:22:04;1.10;99.90
6518;DHT22;3292;48.944;9.240;2024-01-30T05:24:31;1.00;99.90
6518;DHT22;3292;48.944;9.240;2024-01-30T05:26:58;1.00;99.90
6518;DHT22;3292;48.944;9.240;2024-01-30T05:29:25;1.10;99.90
6518;DHT22;3292;48.944;9.240;2024-01-30T05:31:53;1.10;99.90
6518;DHT22;3292;48.944;9.240;2024-01-30T05:34:20;1.10;99.90
6518;DHT22;3292;48.944;9.240;2024-01-30T05:36:47;1.10;99.90
6518;DHT22;3292;48.944;9.240;2024-01-30T05:39:14;1.10;99.90
6518;DHT22;3292;48.944;9.240;2024-01-30T05:41:41;1.10;99.90
6518;DHT22;3292;48.944;9.240;2024-01-30T05:44:07;1.00;99.90
6518;DHT22;3292;48.944;9.240;2024-01-30T05:46:35;1.00;99.90
6518;DHT22;3292;48.944;9.240;2024-01-30T05:49:03;1.00;99.90
6518;DHT22;3292;48.944;9.240;2024-01-30T05:51:30;1.00;99.90
6518;DHT22;3292;48.944;9.240;2024-01-30T05:53:57;1.00;99.90
6518;DHT22;3292;48.944;9.240;2024-01-30T05:56:24;0.90;99.90
6518;DHT22;3292;48.944;9.240;2024-01-30T05:58:50;0.90;99.90
6518;DHT22;3292;48.944;9.240;2024-01-30T06:01:17;0.90;99.90
6518;DHT22;3292;48.944;9.240;2024-01-30T06:03:44;0.90;99.90
6518;DHT22;3292;48.944;9.240;2024-01-30T06:06:12;0.90;99.90
6518;DHT22;3292;48.944;9.240;2024-01-30T06:08:39;0.90;99.90
6518;DHT22;3292;48.944;9.240;2024-01-30T06:11:09;0.90;99.90
6518;DHT22;3292;48.944;9.240;2024-01-30T06:13:36;0.90;99.90
6518;DHT22;3292;48.944;9.240;2024-01-30T06:16:03;1.00;99.90
6518;DHT22;3292;48.944;9.240;2024-01-30T06:18:31;1.00;99.90
6518;DHT22;3292;48.944;9.240;2024-01-30T06:20:58;1.00;99.90
6518;DHT22;3292;48.944;9.240;2024-01-30T06:23:26;0.90;99.90
6518;DHT22;3292;48.944;9.240;2024-01-30T06:25:52;0.90;99.90
6518;DHT22;3292;48.944;9.240;2024-01-30T06:28:19;0.90;99.90
6518;DHT22;3292;48.944;9.240;2024-01-30T06:30:46;0.90;99.90
6518;DHT22;3292;48.944;9.240;2024-01-30T06:33:13;0.90;99.90
6518;DHT22;3292;48.944;9.240;2024-01-30T06:35:40;0.80;99.90
6518;DHT22;3292;48.944;9.240;2024-01-30T06:38:07;0.80;99.90
6518;DHT22;3292;48.944;9.240;2024-01-30T06:40:36;0.90;99.90
6518;DHT22;3292;48.944;9.240;2024-01-30T06:43:04;0.90;99.90
6518;DHT22;3292;48.944;9.240;2024-01-30T06:45:31;0.90;99.90
6518;DHT22;3292;48.944;9.240;2024-01-30T06:47:58;0.90;99.90
6518;DHT22;3292;48.944;9.240;2024-01-30T06:50:25;0.80;99.90
6518;DHT22;3292;48.944;9.240;2024-01-30T06:52:52;0.80;99.90
6518;DHT22;3292;48.944;9.240;2024-01-30T06:55:18;0.80;99.90
6518;DHT22;3292;48.944;9.240;2024-01-30T06:57:46;0.80;99.90
6518;DHT22;3292;48.944;9.240;2024-01-30T07:00:14;0.80;99.90
6518;DHT22;3292;48.944;9.240;2024-01-30T07:02:41;0.80;99.90
6518;DHT22;3292;48.944;9.240;2024-01-30T07:05:08;0.80;99.90
6518;DHT22;3292;48.944;9.240;2024-01-30T07:07:35;0.80;99.90
6518;DHT22;3292;48.944;9.240;2024-01-30T07:10:02;0.80;99.90
6518;DHT22;3292;48.944;9.240;2024-01-30T07:12:30;0.80;99.90
6518;DHT22;3292;48.944;9.240;2024-01-30T07:14:59;0.80;99.90
6518;DHT22;3292;48.944;9.240;2024-01-30T07:17:26;0.80;99.90
6518;DHT22;3292;48.944;9.240;2024-01-30T07:19:53;0.80;99.90
6518;DHT22;3292;48.944;9.240;2024-01-30T07:22:20;0.90;99.90
6518;DHT22;3292;48.944;9.240;2024-01-30T07:24:46;0.90;99.90
6518;DHT22;3292;48.944;9.240;2024-01-30T07:27:14;0.90;99.90
6518;DHT22;3292;48.944;9.240;2024-01-30T07:29:43;0.90;99.90
6518;DHT22;3292;48.944;9.240;2024-01-30T07:32:11;1.00;99.90
6518;DHT22;3292;48.944;9.240;2024-01-30T07:34:37;0.90;99.90
6518;DHT22;3292;48.944;9.240;2024-01-30T07:37:04;1.00;99.90
6518;DHT22;3292;48.944;9.240;2024-01-30T07:39:34;1.00;99.90
6518;DHT22;3292;48.944;9.240;2024-01-30T07:42:01;1.10;99.90
6518;DHT22;3292;48.944;9.240;2024-01-30T07:44:28;1.10;99.90
6518;DHT22;3292;48.944;9.240;2024-01-30T07:46:55;1.20;99.90
6518;DHT22;3292;48.944;9.240;2024-01-30T07:49:24;1.20;99.90
6518;DHT22;3292;48.944;9.240;2024-01-30T07:51:50;1.20;99.90
6518;DHT22;3292;48.944;9.240;2024-01-30T07:54:17;1.20;99.90
6518;DHT22;3292;48.944;9.240;2024-01-30T07:56:44;1.20;99.90
6518;DHT22;3292;48.944;9.240;2024-01-30T07:59:11;1.20;99.90
6518;DHT22;3292;48.944;9.240;2024-01-30T08:01:38;1.20;99.90
6518;DHT22;3292;48.944;9.240;2024-01-30T08:04:05;1.30;99.90
6518;DHT22;3292;48.944;9.240;2024-01-30T08:06:33;1.40;99.90
6518;DHT22;3292;48.944;9.240;2024-01-30T08:09:00;1.50;99.90
6518;DHT22;3292;48.944;9.240;2024-01-30T08:11:27;1.50;99.90
6518;DHT22;3292;48.944;9.240;2024-01-30T08:13:55;1.60;99.90
6518;DHT22;3292;48.944;9.240;2024-01-30T08:16:22;1.70;99.90
6518;DHT22;3292;48.944;9.240;2024-01-30T08:18:48;1.80;99.90
6518;DHT22;3292;48.944;9.240;2024-01-30T08:21:15;1.90;99.90
6518;DHT22;3292;48.944;9.240;2024-01-30T08:23:43;2.00;99.90
6518;DHT22;3292;48.944;9.240;2024-01-30T08:26:10;2.00;99.90
6518;DHT22;3292;48.944;9.240;2024-01-30T08:28:37;2.10;99.90
6518;DHT22;3292;48.944;9.240;2024-01-30T08:31:04;2.20;99.90
6518;DHT22;3292;48.944;9.240;2024-01-30T08:33:31;2.40;99.90
6518;DHT22;3292;48.944;9.240;2024-01-30T08:35:57;2.40;99.90
6518;DHT22;3292;48.944;9.240;2024-01-30T08:38:24;2.50;99.90
6518;DHT22;3292;48.944;9.240;2024-01-30T08:40:52;2.70;99.90
6518;DHT22;3292;48.944;9.240;2024-01-30T08:43:19;2.80;99.90
6518;DHT22;3292;48.944;9.240;2024-01-30T08:45:46;2.90;99.90
6518;DHT22;3292;48.944;9.240;2024-01-30T08:48:13;3.00;99.90
6518;DHT22;3292;48.944;9.240;2024-01-30T08:50:40;3.10;99.90
6518;DHT22;3292;48.944;9.240;2024-01-30T08:53:06;3.10;99.90
6518;DHT22;3292;48.944;9.240;2024-01-30T08:55:33;3.20;99.90
6518;DHT22;3292;48.944;9.240;2024-01-30T08:58:01;3.20;99.90
6518;DHT22;3292;48.944;9.240;2024-01-30T09:00:30;3.20;99.90
6518;DHT22;3292;48.944;9.240;2024-01-30T09:02:58;3.30;99.90
6518;DHT22;3292;48.944;9.240;2024-01-30T09:05:24;3.40;99.90
6518;DHT22;3292;48.944;9.240;2024-01-30T09:07:51;3.40;99.90
6518;DHT22;3292;48.944;9.240;2024-01-30T09:10:18;3.50;99.90
6518;DHT22;3292;48.944;9.240;2024-01-30T09:12:46;3.50;99.90
6518;DHT22;3292;48.944;9.240;2024-01-30T09:15:14;3.60;99.90
6518;DHT22;3292;48.944;9.240;2024-01-30T09:17:41;3.70;99.90
6518;DHT22;3292;48.944;9.240;2024-01-30T09:20:08;3.70;99.90
6518;DHT22;3292;48.944;9.240;2024-01-30T09:22:35;3.80;99.90
6518;DHT22;3292;48.944;9.240;2024-01-30T09:25:03;3.80;99.90
6518;DHT22;3292;48.944;9.240;2024-01-30T09:27:29;3.90;99.90
6518;DHT22;3292;48.944;9.240;2024-01-30T09:29:56;3.90;99.90
6518;DHT22;3292;48.944;9.240;2024-01-30T09:32:24;4.10;99.90
6518;DHT22;3292;48.944;9.240;2024-01-30T09:34:52;4.20;99.90
6518;DHT22;3292;48.944;9.240;2024-01-30T09:37:18;4.30;99.90
6518;DHT22;3292;48.944;9.240;2024-01-30T09:39:46;4.40;99.90
6518;DHT22;3292;48.944;9.240;2024-01-30T09:42:20;4.50;99.90
6518;DHT22;3292;48.944;9.240;2024-01-30T09:44:51;4.60;99.90
6518;DHT22;3292;48.944;9.240;2024-01-30T09:47:18;4.70;99.90
6518;DHT22;3292;48.944;9.240;2024-01-30T09:49:46;4.90;99.90
6518;DHT22;3292;48.944;9.240;2024-01-30T09:52:13;5.00;99.90
6518;DHT22;3292;48.944;9.240;2024-01-30T09:54:41;5.10;99.90
6518;DHT22;3292;48.944;9.240;2024-01-30T09:57:08;5.20;99.90
6518;DHT22;3292;48.944;9.240;2024-01-30T09:59:35;5.20;99.90
6518;DHT22;3292;48.944;9.240;2024-01-30T10:02:02;5.30;99.90
6518;DHT22;3292;48.944;9.240;2024-01-30T10:04:29;5.50;99.90
6518;DHT22;3292;48.944;9.240;2024-01-30T10:06:59;5.60;99.90
6518;DHT22;3292;48.944;9.240;2024-01-30T10:09:27;5.70;99.90
6518;DHT22;3292;48.944;9.240;2024-01-30T10:11:53;5.80;99.90
6518;DHT22;3292;48.944;9.240;2024-01-30T10:14:20;6.00;99.90
6518;DHT22;3292;48.944;9.240;2024-01-30T10:16:47;6.00;99.90
6518;DHT22;3292;48.944;9.240;2024-01-30T10:19:14;6.30;99.90
6518;DHT22;3292;48.944;9.240;2024-01-30T10:21:41;6.30;99.90
6518;DHT22;3292;48.944;9.240;2024-01-30T10:24:10;6.30;99.90
6518;DHT22;3292;48.944;9.240;2024-01-30T10:26:38;6.30;99.90
6518;DHT22;3292;48.944;9.240;2024-01-30T10:29:05;6.40;99.90
6518;DHT22;3292;48.944;9.240;2024-01-30T10:31:32;6.40;99.90
6518;DHT22;3292;48.944;9.240;2024-01-30T10:33:58;6.50;99.90
6518;DHT22;3292;48.944;9.240;2024-01-30T10:36:28;6.50;99.90
6518;DHT22;3292;48.944;9.240;2024-01-30T10:38:59;6.60;99.90
6518;DHT22;3292;48.944;9.240;2024-01-30T10:41:27;6.60;99.90
6518;DHT22;3292;48.944;9.240;2024-01-30T10:44:02;6.70;99.90
6518;DHT22;3292;48.944;9.240;2024-01-30T10:46:36;6.80;99.90
6518;DHT22;3292;48.944;9.240;2024-01-30T10:49:04;6.80;99.90
6518;DHT22;3292;48.944;9.240;2024-01-30T10:51:32;6.90;99.90
6518;DHT22;3292;48.944;9.240;2024-01-30T10:54:01;6.90;99.90
6518;DHT22;3292;48.944;9.240;2024-01-30T10:56:32;7.00;99.90
6518;DHT22;3292;48.944;9.240;2024-01-30T10:59:00;7.00;99.90
6518;DHT22;3292;48.944;9.240;2024-01-30T11:01:27;7.10;99.90
6518;DHT22;3292;48.944;9.240;2024-01-30T11:03:55;7.10;99.90
6518;DHT22;3292;48.944;9.240;2024-01-30T11:06:23;7.20;99.90
6518;DHT22;3292;48.944;9.240;2024-01-30T11:09:00;7.30;99.90
6518;DHT22;3292;48.944;9.240;2024-01-30T11:11:30;7.40;99.90
6518;DHT22;3292;48.944;9.240;2024-01-30T11:14:00;7.50;99.90
6518;DHT22;3292;48.944;9.240;2024-01-30T11:16:32;7.70;99.90
6518;DHT22;3292;48.944;9.240;2024-01-30T11:19:00;7.80;99.90
6518;DHT22;3292;48.944;9.240;2024-01-30T11:21:27;7.90;99.90
6518;DHT22;3292;48.944;9.240;2024-01-30T11:23:55;8.00;99.90
6518;DHT22;3292;48.944;9.240;2024-01-30T11:26:27;8.10;99.90
6518;DHT22;3292;48.944;9.240;2024-01-30T11:28:55;8.10;99.90
6518;DHT22;3292;48.944;9.240;2024-01-30T11:31:22;8.20;99.90
6518;DHT22;3292;48.944;9.240;2024-01-30T11:33:52;8.30;99.90
6518;DHT22;3292;48.944;9.240;2024-01-30T11:36:22;8.30;99.90
6518;DHT22;3292;48.944;9.240;2024-01-30T11:38:57;8.30;99.90
6518;DHT22;3292;48.944;9.240;2024-01-30T11:41:25;8.40;99.90
6518;DHT22;3292;48.944;9.240;2024-01-30T11:43:52;8.50;99.90
6518;DHT22;3292;48.944;9.240;2024-01-30T11:46:20;8.40;99.90
6518;DHT22;3292;48.944;9.240;2024-01-30T11:48:47;8.60;99.90
6518;DHT22;3292;48.944;9.240;2024-01-30T11:51:14;8.60;99.90
6518;DHT22;3292;48.944;9.240;2024-01-30T11:53:44;8.70;99.90
6518;DHT22;3292;48.944;9.240;2024-01-30T11:56:12;8.70;99.90
6518;DHT22;3292;48.944;9.240;2024-01-30T11:58:42;8.70;99.90
6518;DHT22;3292;48.944;9.240;2024-01-30T12:01:10;8.70;99.90
6518;DHT22;3292;48.944;9.240;2024-01-30T12:03:38;8.80;99.90
6518;DHT22;3292;48.944;9.240;2024-01-30T12:06:05;8.90;99.90
6518;DHT22;3292;48.944;9.240;2024-01-30T12:08:32;8.90;99.90
6518;DHT22;3292;48.944;9.240;2024-01-30T12:11:02;9.00;99.90
6518;DHT22;3292;48.944;9.240;2024-01-30T12:13:31;9.00;99.90
6518;DHT22;3292;48.944;9.240;2024-01-30T12:15:58;9.00;99.90
6518;DHT22;3292;48.944;9.240;2024-01-30T12:18:25;9.00;99.90
6518;DHT22;3292;48.944;9.240;2024-01-30T12:20:59;9.10;99.90
6518;DHT22;3292;48.944;9.240;2024-01-30T12:23:27;9.10;99.90
6518;DHT22;3292;48.944;9.240;2024-01-30T12:25:54;9.20;99.90
6518;DHT22;3292;48.944;9.240;2024-01-30T12:28:21;9.30;99.90
6518;DHT22;3292;48.944;9.240;2024-01-30T12:30:47;9.30;99.90
6518;DHT22;3292;48.944;9.240;2024-01-30T12:33:16;9.30;99.90
6518;DHT22;3292;48.944;9.240;2024-01-30T12:35:45;9.30;99.90
6518;DHT22;3292;48.944;9.240;2024-01-30T12:38:14;9.40;99.90
6518;DHT22;3292;48.944;9.240;2024-01-30T12:40:41;9.50;99.90
6518;DHT22;3292;48.944;9.240;2024-01-30T12:43:08;9.50;99.90
6518;DHT22;3292;48.944;9.240;2024-01-30T12:45:36;9.40;99.90
6518;DHT22;3292;48.944;9.240;2024-01-30T12:48:03;9.40;99.90
6518;DHT22;3292;48.944;9.240;2024-01-30T12:50:30;9.40;99.90
6518;DHT22;3292;48.944;9.240;2024-01-30T12:52:57;9.40;99.90
6518;DHT22;3292;48.944;9.240;2024-01-30T12:55:25;9.50;99.90
6518;DHT22;3292;48.944;9.240;2024-01-30T12:57:53;9.50;99.90
6518;DHT22;3292;48.944;9.240;2024-01-30T13:00:21;9.60;99.90
6518;DHT22;3292;48.944;9.240;2024-01-30T13:02:48;9.60;99.90
6518;DHT22;3292;48.944;9.240;2024-01-30T13:05:15;9.70;99.90
6518;DHT22;3292;48.944;9.240;2024-01-30T13:07:42;9.70;99.90
6518;DHT22;3292;48.944;9.240;2024-01-30T13:10:08;9.70;99.90
6518;DHT22;3292;48.944;9.240;2024-01-30T13:12:37;9.70;99.90
6518;DHT22;3292;48.944;9.240;2024-01-30T13:15:04;9.90;99.90
6518;DHT22;3292;48.944;9.240;2024-01-30T13:17:31;9.90;99.90
6518;DHT22;3292;48.944;9.240;2024-01-30T13:19:58;9.90;99.90
6518;DHT22;3292;48.944;9.240;2024-01-30T13:22:25;9.90;99.90
6518;DHT22;3292;48.944;9.240;2024-01-30T13:24:52;9.90;99.90
6518;DHT22;3292;48.944;9.240;2024-01-30T13:27:19;10.10;99.90
6518;DHT22;3292;48.944;9.240;2024-01-30T13:29:48;10.20;99.90
6518;DHT22;3292;48.944;9.240;2024-01-30T13:32:14;10.30;99.90
6518;DHT22;3292;48.944;9.240;2024-01-30T13:34:41;10.40;99.90
6518;DHT22;3292;48.944;9.240;2024-01-30T13:37:08;10.40;99.90
6518;DHT22;3292;48.944;9.240;2024-01-30T13:39:36;10.50;99.90
6518;DHT22;3292;48.944;9.240;2024-01-30T13:42:03;10.50;99.90
6518;DHT22;3292;48.944;9.240;2024-01-30T13:44:30;10.40;99.90
6518;DHT22;3292;48.944;9.240;2024-01-30T13:46:58;10.30;99.90
6518;DHT22;3292;48.944;9.240;2024-01-30T13:49:25;10.40;99.90
6518;DHT22;3292;48.944;9.240;2024-01-30T13:51:52;10.40;99.90
6518;DHT22;3292;48.944;9.240;2024-01-30T13:54:19;10.30;99.90
6518;DHT22;3292;48.944;9.240;2024-01-30T13:56:46;10.30;99.90
6518;DHT22;3292;48.944;9.240;2024-01-30T13:59:13;10.30;99.90
6518;DHT22;3292;48.944;9.240;2024-01-30T14:01:39;10.20;99.90
6518;DHT22;3292;48.944;9.240;2024-01-30T14:04:08;10.20;99.90
6518;DHT22;3292;48.944;9.240;2024-01-30T14:06:34;10.20;99.90
6518;DHT22;3292;48.944;9.240;2024-01-30T14:09:01;10.20;99.90
6518;DHT22;3292;48.944;9.240;2024-01-30T14:11:29;10.20;99.90
6518;DHT22;3292;48.944;9.240;2024-01-30T14:13:56;10.20;99.90
6518;DHT22;3292;48.944;9.240;2024-01-30T14:16:23;10.20;99.90
6518;DHT22;3292;48.944;9.240;2024-01-30T14:18:50;10.20;99.90
6518;DHT22;3292;48.944;9.240;2024-01-30T14:21:18;10.20;99.90
6518;DHT22;3292;48.944;9.240;2024-01-30T14:23:45;10.20;99.90
6518;DHT22;3292;48.944;9.240;2024-01-30T14:26:12;10.20;99.90
6518;DHT22;3292;48.944;9.240;2024-01-30T14:28:39;10.20;99.90
6518;DHT22;3292;48.944;9.240;2024-01-30T14:31:06;10.20;99.90
6518;DHT22;3292;48.944;9.240;2024-01-30T14:33:33;10.20;99.90
6518;DHT22;3292;48.944;9.240;2024-01-30T14:35:59;10.10;99.90
6518;DHT22;3292;48.944;9.240;2024-01-30T14:38:28;10.10;99.90
6518;DHT22;3292;48.944;9.240;2024-01-30T14:40:54;10.10;99.90
6518;DHT22;3292;48.944;9.240;2024-01-30T14:43:21;10.00;99.90
6518;DHT22;3292;48.944;9.240;2024-01-30T14:45:48;10.00;99.90
6518;DHT22;3292;48.944;9.240;2024-01-30T14:48:15;10.00;99.90
6518;DHT22;3292;48.944;9.240;2024-01-30T14:50:42;9.90;99.90
6518;DHT22;3292;48.944;9.240;2024-01-30T14:53:09;9.80;99.90
6518;DHT22;3292;48.944;9.240;2024-01-30T14:55:37;9.80;99.90
6518;DHT22;3292;48.944;9.240;2024-01-30T14:58:04;9.70;99.90
6518;DHT22;3292;48.944;9.240;2024-01-30T15:00:31;9.70;99.90
6518;DHT22;3292;48.944;9.240;2024-01-30T15:02:58;9.70;99.90
6518;DHT22;3292;48.944;9.240;2024-01-30T15:05:25;9.70;99.90
6518;DHT22;3292;48.944;9.240;2024-01-30T15:07:51;9.60;99.90
6518;DHT22;3292;48.944;9.240;2024-01-30T15:10:18;9.60;99.90
6518;DHT22;3292;48.944;9.240;2024-01-30T15:12:46;9.60;99.90
6518;DHT22;3292;48.944;9.240;2024-01-30T15:15:13;9.50;99.90
6518;DHT22;3292;48.944;9.240;2024-01-30T15:17:40;9.50;99.90
6518;DHT22;3292;48.944;9.240;2024-01-30T15:20:07;9.50;99.90
6518;DHT22;3292;48.944;9.240;2024-01-30T15:22:34;9.40;99.90
6518;DHT22;3292;48.944;9.240;2024-01-30T15:25:01;9.40;99.90
6518;DHT22;3292;48.944;9.240;2024-01-30T15:27:28;9.30;99.90
6518;DHT22;3292;48.944;9.240;2024-01-30T15:29:57;9.30;99.90
6518;DHT22;3292;48.944;9.240;2024-01-30T15:32:23;9.30;99.90
6518;DHT22;3292;48.944;9.240;2024-01-30T15:34:50;9.20;99.90
6518;DHT22;3292;48.944;9.240;2024-01-30T15:37:17;9.20;99.90
6518;DHT22;3292;48.944;9.240;2024-01-30T15:39:44;9.10;99.90
6518;DHT22;3292;48.944;9.240;2024-01-30T15:42:11;9.10;99.90
6518;DHT22;3292;48.944;9.240;2024-01-30T15:44:38;9.00;99.90
6518;DHT22;3292;48.944;9.240;2024-01-30T15:47:07;8.90;99.90
6518;DHT22;3292;48.944;9.240;2024-01-30T15:49:33;8.80;99.90
6518;DHT22;3292;48.944;9.240;2024-01-30T15:52:00;8.80;99.90
6518;DHT22;3292;48.944;9.240;2024-01-30T15:54:27;8.70;99.90
6518;DHT22;3292;48.944;9.240;2024-01-30T15:56:54;8.70;99.90
6518;DHT22;3292;48.944;9.240;2024-01-30T15:59:20;8.60;99.90
6518;DHT22;3292;48.944;9.240;2024-01-30T16:01:47;8.50;99.90
6518;DHT22;3292;48.944;9.240;2024-01-30T16:04:16;8.50;99.90
6518;DHT22;3292;48.944;9.240;2024-01-30T16:06:43;8.40;99.90
6518;DHT22;3292;48.944;9.240;2024-01-30T16:09:10;8.40;99.90
6518;DHT22;3292;48.944;9.240;2024-01-30T16:18:25;8.20;99.90
6518;DHT22;3292;48.944;9.240;2024-01-30T16:20:53;8.20;99.90
6518;DHT22;3292;48.944;9.240;2024-01-30T16:23:20;8.20;99.90